Time;durP1;ratioP1;P1;durP2;ratioP2;P2;SDS_P1;SDS_P2;PMS_P1;PMS_P2;Temp;Humidity;BMP_temperature;BMP_pressure;BME280_temperature;BME280_humidity;BME280_pressure;Samples;Min_cycle;Max_cycle;Signal;HPM_P1;HPM_P2
2021/06/27 00:02:08;;;;;;;15.75;10.40;;;;;;;14.95;86.85;98240.55;1812784;79;20940;-82
2021/06/27 00:04:36;;;;;;;12.37;10.63;;;;;;;14.94;86.74;98237.58;1813540;79;21425;-88
2021/06/27 00:07:02;;;;;;;15.15;10.32;;;;;;;14.94;86.19;98241.11;1812076;79;20992;-87
2021/06/27 00:09:31;;;;;;;10.78;9.70;;;;;;;14.91;86.30;98242.28;1813000;79;21506;-82
2021/06/27 00:12:00;;;;;;;16.70;10.47;;;;;;;14.88;85.96;98239.61;1812849;79;20897;-88
2021/06/27 00:14:24;;;;;;;15.43;10.18;;;;;;;14.80;87.15;98235.41;1812542;79;20941;-88
2021/06/27 00:16:52;;;;;;;13.10;9.38;;;;;;;14.78;85.88;98242.51;1812852;79;21197;-88
2021/06/27 00:19:22;;;;;;;11.08;8.68;;;;;;;14.75;86.86;98240.95;1813354;79;20921;-83
2021/06/27 00:21:51;;;;;;;10.88;8.85;;;;;;;14.72;87.04;98238.84;1812763;79;20924;-88
2021/06/27 00:24:20;;;;;;;13.48;8.85;;;;;;;14.66;87.13;98246.29;1812508;79;20988;-83
2021/06/27 00:26:46;;;;;;;15.80;9.20;;;;;;;14.61;86.90;98251.83;1812055;79;20897;-83
2021/06/27 00:29:13;;;;;;;16.75;10.13;;;;;;;14.58;87.13;98247.79;1813040;79;21503;-81
2021/06/27 00:31:39;;;;;;;14.30;9.70;;;;;;;14.57;86.30;98253.55;1812815;79;20878;-82
2021/06/27 00:34:05;;;;;;;11.15;9.15;;;;;;;14.53;87.12;98253.91;1812703;79;20988;-87
2021/06/27 00:36:31;;;;;;;11.93;9.03;;;;;;;14.48;87.10;98252.62;1812994;79;21623;-86
2021/06/27 00:38:58;;;;;;;11.10;8.80;;;;;;;14.47;86.45;98249.09;1813035;79;21019;-82
2021/06/27 00:41:24;;;;;;;17.35;8.93;;;;;;;14.46;86.76;98243.94;1813024;79;21105;-82
2021/06/27 00:43:51;;;;;;;17.92;11.45;;;;;;;14.46;86.53;98249.39;1813011;79;21006;-82
2021/06/27 00:46:19;;;;;;;12.10;8.98;;;;;;;14.44;86.08;98244.21;1813147;79;20923;-83
2021/06/27 00:48:49;;;;;;;13.83;9.53;;;;;;;14.38;86.38;98242.12;1798064;79;21271;-87
2021/06/27 00:51:24;;;;;;;13.22;10.32;;;;;;;14.31;86.16;98243.05;1806591;79;20897;-82
2021/06/27 00:53:54;;;;;;;16.70;9.57;;;;;;;14.26;86.65;98243.67;1811768;79;21345;-87
2021/06/27 00:56:19;;;;;;;10.53;9.43;;;;;;;14.23;87.03;98242.37;1756985;80;21635;-86
2021/06/27 00:58:44;;;;;;;12.65;10.13;;;;;;;14.19;86.51;98240.55;1723894;82;20981;-83
2021/06/27 01:01:12;;;;;;;16.52;12.35;;;;;;;14.08;86.72;98242.05;1766637;81;20918;-83
2021/06/27 01:03:40;;;;;;;18.07;11.00;;;;;;;13.99;87.53;98245.20;1708594;82;21425;-88
2021/06/27 01:06:10;;;;;;;17.47;10.93;;;;;;;13.95;87.44;98243.38;1751695;81;20895;-83
2021/06/27 01:08:40;;;;;;;13.90;10.08;;;;;;;13.93;86.99;98252.38;1766202;81;20974;-88
2021/06/27 01:11:08;;;;;;;14.93;10.23;;;;;;;13.93;86.17;98249.13;1765703;80;21018;-89
2021/06/27 01:13:36;;;;;;;10.67;9.57;;;;;;;13.93;86.17;98249.13;1766762;81;21395;-88
2021/06/27 01:16:02;;;;;;;12.95;10.60;;;;;;;13.85;87.69;98248.43;1766556;81;21041;-87
2021/06/27 01:18:28;;;;;;;12.95;9.35;;;;;;;13.80;88.33;98249.30;1766501;81;21105;-87
2021/06/27 01:20:57;;;;;;;11.78;9.60;;;;;;;13.78;87.99;98250.16;1766302;81;21564;-83
2021/06/27 01:23:24;;;;;;;13.80;10.28;;;;;;;13.82;87.66;98257.17;1766343;81;21390;-88
2021/06/27 01:25:52;;;;;;;23.20;10.50;;;;;;;13.81;88.23;98259.64;1765609;80;20962;-87
2021/06/27 01:28:23;;;;;;;14.40;9.80;;;;;;;13.80;88.31;98259.38;1766268;81;20974;-83
2021/06/27 01:30:49;;;;;;;13.00;10.25;;;;;;;13.75;88.70;98259.45;1766299;80;21135;-84
2021/06/27 01:33:22;;;;;;;12.63;9.00;;;;;;;13.74;87.99;98257.28;1762808;81;21320;-88
2021/06/27 01:35:49;;;;;;;14.85;9.40;;;;;;;13.66;88.29;98248.41;1766557;81;20934;-87
2021/06/27 01:38:19;;;;;;;20.68;10.45;;;;;;;13.65;88.05;98256.32;1766125;81;20919;-83
2021/06/27 01:40:47;;;;;;;14.73;10.20;;;;;;;13.61;88.19;98249.05;1766370;81;20918;-83
2021/06/27 01:43:23;;;;;;;15.20;11.28;;;;;;;13.61;88.48;98253.94;1766288;81;21009;-88
2021/06/27 01:45:55;;;;;;;13.98;9.83;;;;;;;13.63;88.38;98258.53;1765975;80;21322;-88
2021/06/27 01:48:24;;;;;;;13.83;9.40;;;;;;;13.62;87.99;98259.64;1766240;81;21070;-88
2021/06/27 01:50:51;;;;;;;11.77;9.50;;;;;;;13.56;88.19;98260.80;1766643;80;20983;-82
2021/06/27 01:53:21;;;;;;;16.67;10.28;;;;;;;13.58;87.84;98265.40;1766290;81;20923;-88
2021/06/27 01:55:47;;;;;;;12.18;9.23;;;;;;;13.55;88.09;98261.36;1787563;79;22132;-88
2021/06/27 01:58:15;;;;;;;11.55;9.18;;;;;;;13.56;87.86;98260.80;1799267;79;21009;-83
2021/06/27 02:00:45;;;;;;;14.50;9.63;;;;;;;13.54;88.04;98273.91;1799415;79;21120;-83
2021/06/27 02:03:17;;;;;;;22.25;10.88;;;;;;;13.50;87.81;98268.77;1798966;79;20897;-82
2021/06/27 02:05:45;;;;;;;16.73;9.63;;;;;;;13.51;87.48;98273.14;1799714;79;21081;-82
2021/06/27 02:08:14;;;;;;;18.70;9.73;;;;;;;13.47;87.77;98268.81;1798849;78;21117;-83
2021/06/27 02:10:42;;;;;;;13.18;9.68;;;;;;;13.39;88.03;98276.27;1789788;79;21060;-87
2021/06/27 02:13:08;;;;;;;18.55;10.88;;;;;;;13.35;87.84;98275.80;1799674;79;20913;-82
2021/06/27 02:15:36;;;;;;;13.27;10.20;;;;;;;13.25;88.38;98274.02;1789711;79;21013;-87
2021/06/27 02:18:34;;;;;;;13.73;9.93;;;;;;;13.24;87.63;98272.37;1799406;79;21012;-83
2021/06/27 02:21:05;;;;;;;13.78;9.13;;;;;;;13.16;88.76;98267.02;1799509;79;21901;-83
2021/06/27 02:23:31;;;;;;;14.18;10.03;;;;;;;13.13;89.15;98267.58;1798152;78;21031;-83
2021/06/27 02:25:58;;;;;;;15.98;9.78;;;;;;;13.16;89.35;98262.09;1799536;79;20961;-83
2021/06/27 02:28:28;;;;;;;12.90;9.58;;;;;;;13.14;89.86;98264.30;1796316;79;20941;-88
2021/06/27 02:30:54;;;;;;;13.70;10.78;;;;;;;13.17;89.84;98260.47;1799830;79;21008;-83
2021/06/27 02:33:23;;;;;;;18.65;10.98;;;;;;;13.20;89.04;98269.42;1799465;79;21308;-82
2021/06/27 02:35:48;;;;;;;20.95;10.68;;;;;;;13.22;89.33;98268.58;1799846;79;20898;-82
2021/06/27 02:38:14;;;;;;;12.25;9.03;;;;;;;13.23;90.22;98263.95;1799487;79;20961;-88
2021/06/27 02:40:43;;;;;;;11.48;8.48;;;;;;;13.28;90.20;98261.17;1799757;79;21056;-82
2021/06/27 02:43:19;;;;;;;;;;;;;;;;;;;;;
2021/06/27 02:45:49;;;;;;;;;;;;;;;;;;;;;
2021/06/27 02:48:07;;;;;;;11.22;8.05;;;;;;;13.30;89.85;98257.61;1794534;79;21004;-82
2021/06/27 02:50:36;;;;;;;9.83;7.08;;;;;;;13.35;89.88;98259.47;1799623;79;21024;-87
2021/06/27 02:53:06;;;;;;;7.65;6.62;;;;;;;13.41;89.08;98252.83;1761489;79;20965;-88
2021/06/27 02:55:44;;;;;;;;;;;;;;;;;;;;;
2021/06/27 02:58:07;;;;;;;12.43;8.18;;;;;;;13.48;87.89;98253.29;1794248;79;22195;-88
2021/06/27 03:00:33;;;;;;;10.80;8.20;;;;;;;13.46;87.73;98254.95;1799234;79;21016;-82
2021/06/27 03:02:59;;;;;;;13.68;9.88;;;;;;;13.37;89.22;98257.25;1799685;79;21324;-82
2021/06/27 03:05:28;;;;;;;11.88;8.50;;;;;;;13.37;88.33;98257.25;1799930;79;21020;-82
2021/06/27 03:07:54;;;;;;;10.10;8.25;;;;;;;13.43;88.29;98260.18;1799787;79;20966;-87
2021/06/27 03:10:25;;;;;;;13.30;9.00;;;;;;;13.48;87.94;98262.81;1799070;79;21416;-82
2021/06/27 03:12:50;;;;;;;13.47;10.73;;;;;;;13.47;88.20;98260.64;1799197;79;20961;-87
2021/06/27 03:15:20;;;;;;;13.43;10.80;;;;;;;13.52;88.69;98265.23;1795980;79;21159;-83
2021/06/27 03:17:50;;;;;;;14.55;10.40;;;;;;;13.62;88.57;98261.00;1770608;79;20997;-88
2021/06/27 03:20:16;;;;;;;16.10;11.33;;;;;;;13.75;87.40;98264.34;1798650;79;21358;-84
2021/06/27 03:22:46;;;;;;;12.07;9.50;;;;;;;13.79;88.55;98269.47;1796996;79;21009;-88
2021/06/27 03:25:15;;;;;;;13.93;9.80;;;;;;;13.82;87.83;98270.79;1799620;79;21048;-87
2021/06/27 03:27:43;;;;;;;13.40;9.58;;;;;;;13.84;87.99;98271.30;1786475;79;21024;-82
2021/06/27 03:30:16;;;;;;;12.13;9.03;;;;;;;13.82;87.93;98266.15;1790941;79;21323;-83
2021/06/27 03:32:45;;;;;;;13.40;9.65;;;;;;;13.85;87.12;98262.60;1798566;79;21393;-83
2021/06/27 03:35:23;;;;;;;;;;;;;;;;;;;;;
2021/06/27 03:37:53;;;;;;;14.13;10.55;;;;;;;13.91;86.58;98273.11;1794161;79;21016;-83
2021/06/27 03:40:30;;;;;;;;;;;;;;;;;;;;;
2021/06/27 03:42:48;;;;;;;13.20;9.60;;;;;;;13.84;87.00;98268.58;1765827;79;20976;-87
2021/06/27 03:45:22;;;;;;;19.30;9.40;;;;;;;13.80;87.09;98268.92;1796281;79;20902;-88
2021/06/27 03:47:50;;;;;;;12.07;9.35;;;;;;;13.74;87.60;98269.53;1760452;79;21389;-83
2021/06/27 03:50:20;;;;;;;12.93;9.95;;;;;;;13.65;87.77;98274.02;1799298;79;20901;-84
2021/06/27 03:52:48;;;;;;;14.60;9.93;;;;;;;13.58;87.80;98268.13;1799550;79;21005;-83
2021/06/27 03:55:24;;;;;;;11.50;8.08;;;;;;;13.54;89.02;98269.82;1798001;79;21115;-84
2021/06/27 03:57:59;;;;;;;;;;;;;;;;;;;;;
2021/06/27 04:00:25;;;;;;;13.60;9.65;;;;;;;13.69;88.32;98266.90;1790841;80;21669;-83
2021/06/27 04:02:53;;;;;;;15.78;10.93;;;;;;;13.70;88.53;98263.63;1796015;80;21456;-87
2021/06/27 04:05:19;;;;;;;24.80;10.75;;;;;;;13.69;88.33;98261.45;1795232;79;21017;-87
2021/06/27 04:07:45;;;;;;;11.83;8.58;;;;;;;13.75;88.62;98263.53;1796247;80;20989;-83
2021/06/27 04:10:32;;;;;;;;;;;;;;;;;;;;;
2021/06/27 04:12:58;;;;;;;12.25;10.90;;;;;;;13.79;88.60;98269.47;1677754;84;21007;-83
2021/06/27 04:15:23;;;;;;;17.27;9.45;;;;;;;13.85;88.54;98259.88;1745576;80;21437;-87
2021/06/27 04:18:01;;;;;;;13.70;10.60;;;;;;;13.95;88.59;98261.08;1764805;80;21334;-87
2021/06/27 04:20:24;;;;;;;15.25;10.90;;;;;;;13.93;88.46;98266.83;1792881;79;21025;-82
2021/06/27 04:22:52;;;;;;;13.48;10.58;;;;;;;13.93;88.49;98268.72;1795606;80;21083;-87
2021/06/27 04:25:18;;;;;;;12.68;10.48;;;;;;;13.95;88.46;98275.52;1796346;80;21775;-82
2021/06/27 04:27:48;;;;;;;15.08;9.93;;;;;;;14.08;88.55;98264.41;1794563;80;21294;-83
2021/06/27 04:30:15;;;;;;;12.85;10.20;;;;;;;14.19;88.44;98265.08;1796609;79;21442;-82
2021/06/27 04:32:46;;;;;;;15.78;10.40;;;;;;;14.32;87.87;98262.38;1795936;80;21008;-87
2021/06/27 04:35:11;;;;;;;13.32;10.23;;;;;;;14.44;87.67;98257.84;1794387;80;21024;-82
2021/06/27 04:37:38;;;;;;;15.43;10.28;;;;;;;14.52;87.34;98259.88;1795989;80;21441;-82
2021/06/27 04:40:08;;;;;;;11.75;9.18;;;;;;;14.52;87.14;98254.43;1796319;80;21017;-88
2021/06/27 04:42:33;;;;;;;12.40;9.85;;;;;;;14.56;86.84;98247.28;1795671;80;21401;-88
2021/06/27 04:45:04;;;;;;;12.68;9.35;;;;;;;14.62;86.75;98252.91;1795691;80;21015;-84
2021/06/27 04:47:34;;;;;;;11.40;8.55;;;;;;;14.63;86.65;98249.63;1795866;80;21007;-82
2021/06/27 04:50:04;;;;;;;9.70;8.35;;;;;;;14.63;87.06;98249.07;1763338;80;21036;-83
2021/06/27 04:52:34;;;;;;;11.68;9.25;;;;;;;14.79;86.73;98249.61;1795442;80;21032;-86
2021/06/27 04:55:02;;;;;;;10.65;8.53;;;;;;;14.92;86.53;98240.61;1796267;80;21374;-87
2021/06/27 04:57:28;;;;;;;12.33;8.93;;;;;;;15.18;86.42;98238.19;1796270;79;20946;-81
2021/06/27 04:59:57;;;;;;;11.08;8.93;;;;;;;15.32;85.32;98239.55;1796210;80;21008;-86
2021/06/27 05:02:26;;;;;;;9.20;8.25;;;;;;;15.24;85.39;98240.27;1796349;80;21586;-87
2021/06/27 05:04:52;;;;;;;11.70;8.23;;;;;;;15.29;85.30;98236.05;1795962;80;21048;-87
2021/06/27 05:07:18;;;;;;;9.80;8.20;;;;;;;15.45;85.11;98236.53;1796171;80;20918;-84
2021/06/27 05:09:45;;;;;;;10.95;9.08;;;;;;;15.53;84.67;98242.08;1796869;80;21012;-83
2021/06/27 05:12:19;;;;;;;10.50;8.23;;;;;;;15.61;83.67;98243.31;1796130;80;20926;-88
2021/06/27 05:14:39;;;;;;;10.55;9.45;;;;;;;15.56;83.32;98230.31;1793970;79;21718;-85
2021/06/27 05:17:15;;;;;;;;;;;;;;;;;;;;;
2021/06/27 05:19:38;;;;;;;11.10;8.23;;;;;;;15.80;83.92;98233.03;1792902;79;21028;-88
2021/06/27 05:22:07;;;;;;;10.35;8.68;;;;;;;16.13;83.38;98238.28;1795278;80;20965;-83
2021/06/27 05:24:34;;;;;;;12.15;8.60;;;;;;;16.35;82.56;98231.45;1795883;79;21096;-87
2021/06/27 05:27:05;;;;;;;10.35;8.35;;;;;;;16.45;82.77;98227.65;1793764;80;21417;-87
2021/06/27 05:29:32;;;;;;;9.48;8.48;;;;;;;16.67;82.50;98226.81;1796749;79;21004;-87
2021/06/27 05:32:04;;;;;;;15.72;8.73;;;;;;;16.93;81.25;98225.59;1796170;80;21302;-88
2021/06/27 05:34:32;;;;;;;13.28;8.28;;;;;;;17.22;80.66;98229.15;1796266;80;21464;-83
2021/06/27 05:36:58;;;;;;;9.27;8.23;;;;;;;17.43;79.43;98228.81;1796503;80;20914;-88
2021/06/27 05:39:42;;;;;;;;;;;;;;;;;;;;;
2021/06/27 05:42:02;;;;;;;10.10;8.18;;;;;;;17.67;77.26;98226.97;1792353;79;21471;-86
2021/06/27 05:44:28;;;;;;;8.70;6.93;;;;;;;17.61;76.74;98227.47;1795391;79;20949;-83
2021/06/27 05:46:58;;;;;;;8.13;7.07;;;;;;;17.66;76.45;98230.84;1796096;80;20914;-88
2021/06/27 05:49:26;;;;;;;7.83;7.00;;;;;;;17.61;76.22;98234.32;1796577;80;21377;-83
2021/06/27 05:51:52;;;;;;;17.17;7.90;;;;;;;17.57;76.68;98233.33;1795377;79;21695;-88
2021/06/27 05:54:20;;;;;;;14.80;8.45;;;;;;;17.65;76.84;98233.34;1796119;80;21702;-88
2021/06/27 05:56:50;;;;;;;11.15;7.22;;;;;;;17.81;76.29;98231.54;1795132;80;21068;-83
2021/06/27 05:59:22;;;;;;;8.03;7.22;;;;;;;17.97;75.75;98233.48;1670164;84;20961;-88
2021/06/27 06:01:54;;;;;;;8.90;7.28;;;;;;;18.14;75.50;98237.34;1669331;86;20988;-88
2021/06/27 06:04:28;;;;;;;8.40;6.95;;;;;;;18.39;74.67;98227.48;1687853;85;21237;-83
2021/06/27 06:07:13;;;;;;;;;;;;;;;;;;;;;
2021/06/27 06:09:51;;;;;;;;;;;;;;;;;;;;;
2021/06/27 06:15:24;;;;;;;;;;;;;;;;;;;;;
2021/06/27 06:33:12;;;;;;;;;;;;;;;;;;;;;
2021/06/27 06:35:41;;;;;;;;;;;;;;;;;;;;;
2021/06/27 06:38:21;;;;;;;;;;;;;;;;;;;;;
2021/06/27 06:43:05;;;;;;;11.90;8.50;;;;;;;20.78;66.69;98248.08;1686540;84;20963;-84
2021/06/27 06:45:50;;;;;;;;;;;;;;;;;;;;;
2021/06/27 06:48:25;;;;;;;;;;;;;;;;;;;;;
2021/06/27 06:50:49;;;;;;;9.38;8.20;;;;;;;20.71;67.13;98245.08;1557848;82;21061;-82
2021/06/27 06:53:25;;;;;;;;;;;;;;;;;;;;;
2021/06/27 06:55:51;;;;;;;9.43;7.95;;;;;;;20.81;67.24;98242.46;1630479;87;20971;-88
2021/06/27 06:58:29;;;;;;;10.63;8.40;;;;;;;20.94;66.48;98242.73;1574219;91;21154;-83
2021/06/27 07:01:08;;;;;;;8.78;7.85;;;;;;;20.86;66.91;98240.87;1541030;92;21391;-89
2021/06/27 07:03:50;;;;;;;;;;;;;;;;;;;;;
2021/06/27 07:06:22;;;;;;;;;;;;;;;;;;;;;
2021/06/27 07:09:09;;;;;;;;;;;;;;;;;;;;;
2021/06/27 07:11:29;;;;;;;;;;;;;;;;;;;;;
2021/06/27 07:14:07;;;;;;;;;;;;;;;;;;;;;
2021/06/27 07:16:41;;;;;;;;;;;;;;;;;;;;;
2021/06/27 07:19:06;;;;;;;;;;;;;;;;;;;;;
2021/06/27 07:21:41;;;;;;;;;;;;;;;;;;;;;
2021/06/27 07:26:47;;;;;;;7.90;7.10;;;;;;;21.80;65.20;98240.77;1375025;102;21118;-88
2021/06/27 07:29:26;;;;;;;;;;;;;;;;;;;;;
2021/06/27 07:32:00;;;;;;;;;;;;;;;;;;;;;
2021/06/27 07:34:35;;;;;;;;;;;;;;;;;;;;;
2021/06/27 07:36:55;;;;;;;7.45;6.15;;;;;;;22.67;62.06;98240.11;1351466;103;21152;-88
2021/06/27 07:39:37;;;;;;;;;;;;;;;;;;;;;
2021/06/27 07:42:15;;;;;;;8.78;6.15;;;;;;;23.17;62.30;98230.95;1346518;104;21600;-89
2021/06/27 07:44:31;;;;;;;8.03;6.22;;;;;;;23.41;60.27;98231.31;1580286;84;20987;-89
2021/06/27 07:47:03;;;;;;;6.15;5.55;;;;;;;23.80;60.11;98228.09;1725698;81;21056;-89
2021/06/27 07:49:38;;;;;;;10.53;6.08;;;;;;;24.35;58.56;98226.90;1725694;82;20974;-89
2021/06/27 07:52:12;;;;;;;8.58;5.00;;;;;;;24.63;55.77;98221.12;1644430;86;21035;-83
2021/06/27 07:54:45;;;;;;;;;;;;;;;;;;;;;
2021/06/27 07:57:18;;;;;;;;;;;;;;;;;;;;;
2021/06/27 07:59:58;;;;;;;;;;;;;;;;;;;;;
2021/06/27 08:02:29;;;;;;;;;;;;;;;;;;;;;
2021/06/27 08:05:03;;;;;;;;;;;;;;;;;;;;;
2021/06/27 08:07:41;;;;;;;;;;;;;;;;;;;;;
2021/06/27 08:10:24;;;;;;;;;;;;;;;;;;;;;
2021/06/27 08:12:46;;;;;;;;;;;;;;;;;;;;;
2021/06/27 08:15:19;;;;;;;;;;;;;;;;;;;;;
2021/06/27 08:17:52;;;;;;;9.50;5.35;;;;;;;28.04;42.20;98200.59;1582911;89;21052;-89
2021/06/27 08:20:27;;;;;;;;;;;;;;;;;;;;;
2021/06/27 08:23:02;;;;;;;6.42;4.15;;;;;;;27.52;40.37;98203.46;1583573;90;20957;-84
2021/06/27 08:25:36;;;;;;;;;;;;;;;;;;;;;
2021/06/27 08:28:06;;;;;;;;;;;;;;;;;;;;;
2021/06/27 08:30:31;;;;;;;9.83;5.28;;;;;;;28.02;42.16;98204.34;1484408;95;21000;-86
2021/06/27 08:33:12;;;;;;;;;;;;;;;;;;;;;
2021/06/27 08:35:41;;;;;;;3.98;3.22;;;;;;;28.20;39.75;98201.63;1452420;98;21413;-85
2021/06/27 08:38:27;;;;;;;;;;;;;;;;;;;;;
2021/06/27 08:40:54;;;;;;;3.40;2.67;;;;;;;28.88;39.63;98193.69;1455249;98;21168;-89
2021/06/27 08:43:30;;;;;;;;;;;;;;;;;;;;;
2021/06/27 08:45:58;;;;;;;5.87;3.67;;;;;;;28.86;35.69;98191.87;1448398;98;21028;-90
2021/06/27 08:48:26;;;;;;;4.60;3.42;;;;;;;28.80;36.23;98195.44;1451804;98;21159;-91
2021/06/27 08:51:12;;;;;;;;;;;;;;;;;;;;;
2021/06/27 08:53:44;;;;;;;4.17;3.80;;;;;;;29.27;36.72;98195.70;1368627;103;39239;-90
2021/06/27 08:56:28;;;;;;;;;;;;;;;;;;;;;
2021/06/27 08:58:52;;;;;;;4.22;3.33;;;;;;;29.82;36.19;98189.63;1333844;107;21058;-90
2021/06/27 09:01:33;;;;;;;4.08;3.67;;;;;;;30.54;34.86;98196.55;1339517;107;21131;-86
2021/06/27 09:45:01;;;;;;;;;;;;;;;;;;;;;
2021/06/27 09:47:38;;;;;;;;;;;;;;;;;;;;;
2021/06/27 09:50:30;;;;;;;;;;;;;;;;;;;;;
2021/06/27 10:09:23;;;;;;;4.22;3.67;;;;;;;34.97;27.84;98179.12;1759151;80;21359;-84
2021/06/27 10:12:24;;;;;;;;;;;;;;;;;;;;;
2021/06/27 10:15:05;;;;;;;;;;;;;;;;;;;;;
2021/06/27 10:17:29;;;;;;;7.28;5.78;;;;;;;31.82;31.79;98167.34;1641839;86;21012;-83
2021/06/27 10:20:11;;;;;;;;;;;;;;;;;;;;;
2021/06/27 10:22:35;;;;;;;28.50;13.68;;;;;;;30.67;33.37;98168.92;1533644;93;21069;-85
2021/06/27 10:25:18;;;;;;;;;;;;;;;;;;;;;
2021/06/27 10:27:53;;;;;;;;;;;;;;;;;;;;;
2021/06/27 10:30:16;;;;;;;13.35;7.42;;;;;;;30.49;34.07;98158.43;1521316;92;21167;-85
2021/06/27 10:33:00;;;;;;;;;;;;;;;;;;;;;
2021/06/27 10:38:29;;;;;;;4.78;4.12;;;;;;;33.66;30.21;98160.19;1456826;95;21106;-84
2021/06/27 10:41:22;;;;;;;;;;;;;;;;;;;;;
2021/06/27 10:44:21;;;;;;;;;;;;;;;;;;;;;
2021/06/27 10:49:53;;;;;;;;;;;;;;;;;;;;;
2021/06/27 10:54:47;;;;;;;;;;;;;;;;;;;;;
2021/06/27 10:57:56;;;;;;;;;;;;;;;;;;;;;
2021/06/27 11:00:58;;;;;;;;;;;;;;;;;;;;;
2021/06/27 11:34:43;;;;;;;7.33;3.72;;;;;;;38.52;22.62;98115.27;1756644;80;20965;-88
2021/06/27 11:37:36;;;;;;;;;;;;;;;;;;;;;
2021/06/27 12:03:47;;;;;;;;;;;;;;;;;;;;;
2021/06/27 12:06:33;;;;;;;;;;;;;;;;;;;;;
2021/06/27 12:08:56;;;;;;;;;;;;;;;;;;;;;
2021/06/27 12:29:28;;;;;;;;;;;;;;;;;;;;;
2021/06/27 12:43:49;;;;;;;;;;;;;;;;;;;;;
2021/06/27 12:46:53;;;;;;;;;;;;;;;;;;;;;
2021/06/27 12:49:39;;;;;;;;;;;;;;;;;;;;;
2021/06/27 12:55:05;;;;;;;;;;;;;;;;;;;;;
2021/06/27 13:02:57;;;;;;;;;;;;;;;;;;;;;
2021/06/27 13:06:14;;;;;;;;;;;;;;;;;;;;;
2021/06/27 13:13:24;;;;;;;;;;;;;;;;;;;;;
2021/06/27 13:15:56;;;;;;;;;;;;;;;;;;;;;
2021/06/27 13:18:34;;;;;;;;;;;;;;;;;;;;;
2021/06/27 13:26:21;;;;;;;4.15;3.75;;;;;;;37.06;21.88;98069.77;1452916;97;20988;-84
2021/06/27 13:32:29;;;;;;;;;;;;;;;;;;;;;
2021/06/27 13:34:18;;;;;;;5.97;4.03;;;;;;;37.78;20.91;98071.67;1476226;95;21049;-85
2021/06/27 13:37:04;;;;;;;4.70;4.03;;;;;;;37.70;21.19;98065.47;1496487;95;21127;-86
2021/06/27 13:39:33;;;;;;;;;;;;;;;;;;;;;
2021/06/27 13:41:59;;;;;;;5.83;4.10;;;;;;;38.46;21.12;98063.36;1450516;98;21100;-86
2021/06/27 13:44:37;;;;;;;;;;;;;;;;;;;;;
2021/06/27 13:49:35;;;;;;;7.35;4.25;;;;;;;39.02;20.46;98061.64;1788234;79;20995;-85
2021/06/27 13:52:07;;;;;;;4.83;3.85;;;;;;;37.44;20.22;98062.61;1681503;85;21005;-90
2021/06/27 13:54:42;;;;;;;5.42;4.05;;;;;;;36.81;21.27;98061.50;1663726;85;21465;-91
2021/06/27 13:57:18;;;;;;;5.12;4.60;;;;;;;36.98;21.43;98067.19;1620930;88;21004;-91
2021/06/27 13:59:47;;;;;;;6.20;3.87;;;;;;;36.37;21.94;98070.42;1581559;90;21019;-90
2021/06/27 14:02:35;;;;;;;;;;;;;;;;;;;;;
2021/06/27 14:04:58;;;;;;;4.53;3.77;;;;;;;36.47;22.05;98057.99;1463218;96;20982;-90
2021/06/27 14:07:38;;;;;;;;;;;;;;;;;;;;;
2021/06/27 14:10:13;;;;;;;8.55;3.60;;;;;;;36.63;22.56;98058.48;1446323;79;21080;-83
2021/06/27 14:12:46;;;;;;;;;;;;;;;36.80;22.21;98056.31;1762014;81;20990;-83
2021/06/27 14:15:14;;;;;;;4.97;4.47;;;;;;;36.63;22.54;98057.86;1761319;81;20188;-85
2021/06/27 14:18:00;;;;;;;;;;;;;;;;;;;;;
2021/06/27 14:20:20;;;;;;;4.40;3.35;;;;;;;35.53;22.48;98059.18;1646954;87;21045;-91
2021/06/27 14:22:54;;;;;;;6.50;3.70;;;;;;;34.98;23.10;98064.50;1600190;87;20933;-85
2021/06/27 14:25:25;;;;;;;5.22;3.50;;;;;;;34.38;23.86;98063.94;1646787;85;21033;-91
2021/06/27 14:28:03;;;;;;;8.65;3.83;;;;;;;34.68;23.81;98061.41;1647351;85;21021;-84
2021/06/27 14:30:37;;;;;;;;;;;;;;;;;;;;;
2021/06/27 14:33:02;;;;;;;4.37;3.98;;;;;;;35.08;23.71;98064.05;1644236;85;21476;-84
2021/06/27 14:35:45;;;;;;;;;;;;;;;;;;;;;
2021/06/27 14:38:15;;;;;;;8.70;3.47;;;;;;;33.59;24.62;98053.61;1517023;93;21010;-84
2021/06/27 14:40:50;;;;;;;;;;;;;;;;;;;;;
2021/06/27 14:43:23;;;;;;;;;;;;;;;;;;;;;
2021/06/27 14:45:57;;;;;;;;;;;;;;;;;;;;;
2021/06/27 14:48:27;;;;;;;;;;;;;;;;;;;;;
2021/06/27 14:51:03;;;;;;;;;;;;;;;;;;;;;
2021/06/27 14:53:30;;;;;;;3.15;2.85;;;;;;;33.74;24.31;98036.61;1515388;94;21116;-84
2021/06/27 14:56:10;;;;;;;;;;;;;;;;;;;;;
2021/06/27 14:58:44;;;;;;;;;;;;;;;;;;;;;
2021/06/27 15:01:09;;;;;;;3.75;2.72;;;;;;;33.42;24.71;98021.86;1483790;96;21081;-84
2021/06/27 15:03:40;;;;;;;2.98;2.67;;;;;;;32.89;25.50;98025.03;1493048;94;21043;-90
2021/06/27 15:06:08;;;;;;;2.87;2.35;;;;;;;31.68;25.90;98022.03;1522201;92;21142;-91
2021/06/27 15:08:38;;;;;;;3.95;3.02;;;;;;;31.46;26.63;98026.33;1545769;92;21013;-91
2021/06/27 15:11:11;;;;;;;2.90;2.60;;;;;;;31.67;26.63;98028.05;1558188;89;21021;-91
2021/06/27 15:13:37;;;;;;;3.22;2.37;;;;;;;31.94;26.20;98036.52;1573113;89;21085;-91
2021/06/27 15:16:06;;;;;;;12.35;3.33;;;;;;;31.93;26.18;98038.52;1594479;88;21069;-84
2021/06/27 15:18:42;;;;;;;5.25;2.40;;;;;;;32.17;26.09;98039.39;1626439;88;21233;-90
2021/06/27 15:21:10;;;;;;;2.98;2.35;;;;;;;32.03;25.66;98032.58;1593505;85;21062;-86
2021/06/27 15:23:40;;;;;;;2.62;2.10;;;;;;;32.17;25.94;98032.98;1746931;82;20957;-85
2021/06/27 15:26:11;;;;;;;2.85;2.20;;;;;;;31.87;26.26;98031.80;1742543;81;20969;-90
2021/06/27 15:28:36;;;;;;;2.72;2.00;;;;;;;31.02;25.88;98028.00;1750134;81;20979;-91
2021/06/27 15:31:11;;;;;;;;;;;;;;;31.04;26.21;98028.37;1753436;81;20985;-91
2021/06/27 15:33:46;;;;;;;2.52;1.95;;;;;;;31.13;26.76;98027.27;1748969;81;21120;-84
2021/06/27 15:36:07;;;;;;;2.20;2.00;;;;;;;30.82;26.14;98030.58;1740614;81;21016;-84
2021/06/27 15:38:36;;;;;;;1.90;1.60;;;;;;;30.66;26.11;98028.92;1749922;81;21028;-85
2021/06/27 15:41:06;;;;;;;3.27;2.08;;;;;;;30.27;26.16;98013.86;1750731;81;21397;-91
2021/06/27 15:43:42;;;;;;;3.77;2.10;;;;;;;30.16;27.08;98025.70;1750076;81;21032;-84
2021/06/27 15:46:18;;;;;;;;;;;;;;;;;;;;;
2021/06/27 15:48:38;;;;;;;4.95;2.65;;;;;;;29.99;26.54;98003.63;1705650;82;21398;-84
2021/06/27 15:51:08;;;;;;;4.17;2.62;;;;;;;29.43;28.13;98024.45;1725587;82;21000;-84
2021/06/27 15:53:36;;;;;;;;;;;;;;;29.73;28.26;98018.34;1752409;81;21008;-84
2021/06/27 15:56:07;;;;;;;3.60;2.83;;;;;;;29.19;29.25;98018.35;1749952;81;20214;-90
2021/06/27 15:58:32;;;;;;;3.60;2.47;;;;;;;28.42;30.99;98014.45;1722503;82;21032;-90
2021/06/27 16:00:58;;;;;;;3.20;2.80;;;;;;;28.05;31.33;98012.81;1751119;82;21302;-91
2021/06/27 16:03:37;;;;;;;;;;;;;;;;;;;;;
2021/06/27 16:06:01;;;;;;;3.87;3.47;;;;;;;27.69;32.47;98014.14;1746305;81;20914;-84
2021/06/27 16:08:38;;;;;;;6.28;4.05;;;;;;;27.62;32.55;98017.45;1750664;82;21008;-90
2021/06/27 16:11:02;;;;;;;4.37;3.98;;;;;;;27.49;33.70;98013.63;1749066;80;21099;-84
2021/06/27 16:13:33;;;;;;;5.37;3.67;;;;;;;27.33;33.42;98024.88;1741732;81;21031;-91
2021/06/27 16:16:15;;;;;;;;;;;;;;;;;;;;;
2021/06/27 16:18:43;;;;;;;5.45;4.95;;;;;;;27.04;35.51;98025.33;1754719;81;20946;-84
2021/06/27 16:21:17;;;;;;;5.47;4.65;;;;;;;26.70;37.91;98034.61;1678318;85;20954;-83
2021/06/27 16:23:53;;;;;;;6.05;5.45;;;;;;;26.60;37.35;98032.56;1622182;88;21085;-85
2021/06/27 16:26:22;;;;;;;6.03;5.42;;;;;;;26.35;40.34;98037.88;1674026;85;21001;-84
2021/06/27 16:28:57;;;;;;;7.35;5.65;;;;;;;25.99;42.30;98040.12;1603760;89;21066;-91
2021/06/27 16:31:43;;;;;;;;;;;;;;;;;;;;;
2021/06/27 16:34:03;;;;;;;6.53;5.83;;;;;;;25.52;43.13;98045.69;1469173;96;21112;-86
2021/06/27 16:36:42;;;;;;;;;;;;;;;;;;;;;
2021/06/27 16:39:13;;;;;;;;;;;;;;;;;;;;;
2021/06/27 16:41:38;;;;;;;7.12;6.40;;;;;;;25.09;47.51;98038.79;1680866;84;21123;-86
2021/06/27 16:44:08;;;;;;;7.83;6.65;;;;;;;24.96;46.88;98040.38;1688944;85;21143;-84
2021/06/27 16:46:49;;;;;;;8.30;7.40;;;;;;;24.92;47.31;98047.83;1664276;85;20985;-91
2021/06/27 16:49:21;;;;;;;;;;;;;;;;;;;;;
2021/06/27 16:51:43;;;;;;;9.35;6.30;;;;;;;24.84;47.25;98046.12;1791470;80;20895;-84
2021/06/27 16:54:14;;;;;;;7.72;6.92;;;;;;;24.73;48.48;98054.87;1796446;79;20934;-84
2021/06/27 16:56:39;;;;;;;7.70;6.95;;;;;;;24.74;48.21;98050.34;1770887;80;21323;-90
2021/06/27 16:59:05;;;;;;;7.40;6.45;;;;;;;24.68;48.81;98059.33;1795673;80;21457;-84
2021/06/27 17:01:35;;;;;;;9.75;7.28;;;;;;;24.55;49.06;98064.87;1771191;80;20962;-90
2021/06/27 17:04:02;;;;;;;7.97;7.12;;;;;;;24.60;48.93;98070.88;1795457;79;20938;-85
2021/06/27 17:06:32;;;;;;;7.62;6.55;;;;;;;24.35;50.42;98066.89;1771354;80;21065;-84
2021/06/27 17:09:03;;;;;;;8.38;7.15;;;;;;;24.36;50.61;98061.59;1795694;79;21089;-84
2021/06/27 17:11:37;;;;;;;8.48;7.42;;;;;;;24.32;49.69;98066.25;1783386;79;21670;-90
2021/06/27 17:13:59;;;;;;;9.20;6.40;;;;;;;24.16;50.51;98066.34;1793424;79;21273;-89